Impacts TAF Board
For situational awareness. Not to be used for flight planning purposes.
IDs:

KIAD - Washington/Dulles In, VA, US

Issued at 2340 UTC 20 Sep 2018
Updated at 0415 UTC 21 Sep 2018
Potential Impact None Slight Moderate High
Time<<22/05Z 22/06Z 22/07Z 22/08Z 22/09Z 22/10Z 22/11Z 22/12Z 22/13Z 22/14Z 22/15Z 22/16Z 22/17Z
Type PRVL
VIS >6
CIG --
Cover SCT
FltCat VFR
WX --
WDir 190
WSpd 10
WGst 17
Raw TAF
KIAD 202340Z 2100/2206 14007KT P6SM BKN025
  FM210300 15008KT P6SM BKN015 BKN025
  FM211900 18010G17KT P6SM SCT030 BKN035
  FM220200 19010G17KT P6SM FEW025 SCT200


METAR Board
Radar Display
Forecast Discussion
For situational awareness. Not to be used for flight planning purposes.